sensor_id;sensor_type;location;lat;lon;timestamp;temperature;humidity
50512;DHT22;36446;47.642;-3.018;2022-07-29T00:02:17;18.90;98.70
50512;DHT22;36446;47.642;-3.018;2022-07-29T00:04:43;19.20;98.30
50512;DHT22;36446;47.642;-3.018;2022-07-29T00:07:09;19.20;98.00
50512;DHT22;36446;47.642;-3.018;2022-07-29T00:09:34;19.30;98.00
50512;DHT22;36446;47.642;-3.018;2022-07-29T00:12:01;19.30;98.50
50512;DHT22;36446;47.642;-3.018;2022-07-29T00:14:27;19.30;98.30
50512;DHT22;36446;47.642;-3.018;2022-07-29T00:16:53;19.30;98.60
50512;DHT22;36446;47.642;-3.018;2022-07-29T00:19:19;19.30;99.20
50512;DHT22;36446;47.642;-3.018;2022-07-29T00:21:44;19.10;99.50
50512;DHT22;36446;47.642;-3.018;2022-07-29T00:24:10;18.90;99.90
50512;DHT22;36446;47.642;-3.018;2022-07-29T00:26:35;18.80;99.90
50512;DHT22;36446;47.642;-3.018;2022-07-29T00:29:03;18.80;99.70
50512;DHT22;36446;47.642;-3.018;2022-07-29T00:31:29;19.00;99.60
50512;DHT22;36446;47.642;-3.018;2022-07-29T00:33:55;18.80;99.90
50512;DHT22;36446;47.642;-3.018;2022-07-29T00:36:21;18.90;99.80
50512;DHT22;36446;47.642;-3.018;2022-07-29T00:38:51;18.80;99.90
50512;DHT22;36446;47.642;-3.018;2022-07-29T00:41:18;18.80;99.90
50512;DHT22;36446;47.642;-3.018;2022-07-29T00:43:44;19.00;99.90
50512;DHT22;36446;47.642;-3.018;2022-07-29T00:46:10;18.90;99.90
50512;DHT22;36446;47.642;-3.018;2022-07-29T00:48:36;19.00;99.80
50512;DHT22;36446;47.642;-3.018;2022-07-29T00:51:04;18.90;99.90
50512;DHT22;36446;47.642;-3.018;2022-07-29T00:53:31;18.70;99.90
50512;DHT22;36446;47.642;-3.018;2022-07-29T00:55:58;18.50;99.90
50512;DHT22;36446;47.642;-3.018;2022-07-29T00:58:24;18.60;99.90
50512;DHT22;36446;47.642;-3.018;2022-07-29T01:00:52;18.50;99.90
50512;DHT22;36446;47.642;-3.018;2022-07-29T01:03:18;18.70;99.90
50512;DHT22;36446;47.642;-3.018;2022-07-29T01:05:44;18.60;99.90
50512;DHT22;36446;47.642;-3.018;2022-07-29T01:08:12;18.70;99.90
50512;DHT22;36446;47.642;-3.018;2022-07-29T01:10:40;18.70;99.90
50512;DHT22;36446;47.642;-3.018;2022-07-29T01:13:07;18.70;99.90
50512;DHT22;36446;47.642;-3.018;2022-07-29T01:15:38;18.60;99.90
50512;DHT22;36446;47.642;-3.018;2022-07-29T01:31:58;18.30;99.90
50512;DHT22;36446;47.642;-3.018;2022-07-29T01:34:50;18.50;99.90
50512;DHT22;36446;47.642;-3.018;2022-07-29T01:40:30;18.60;99.90
50512;DHT22;36446;47.642;-3.018;2022-07-29T01:42:58;18.70;99.90
50512;DHT22;36446;47.642;-3.018;2022-07-29T01:45:38;18.60;99.90
50512;DHT22;36446;47.642;-3.018;2022-07-29T01:48:34;18.50;99.90
50512;DHT22;36446;47.642;-3.018;2022-07-29T01:51:05;18.30;99.90
50512;DHT22;36446;47.642;-3.018;2022-07-29T01:56:24;17.90;99.90
50512;DHT22;36446;47.642;-3.018;2022-07-29T01:58:52;18.00;99.90
50512;DHT22;36446;47.642;-3.018;2022-07-29T02:01:19;18.00;99.90
50512;DHT22;36446;47.642;-3.018;2022-07-29T02:03:46;18.30;99.90
50512;DHT22;36446;47.642;-3.018;2022-07-29T02:06:15;18.60;99.90
50512;DHT22;36446;47.642;-3.018;2022-07-29T02:08:43;18.70;99.90
50512;DHT22;36446;47.642;-3.018;2022-07-29T02:11:10;18.80;99.90
50512;DHT22;36446;47.642;-3.018;2022-07-29T02:13:37;18.70;99.90
50512;DHT22;36446;47.642;-3.018;2022-07-29T02:16:06;18.70;99.90
50512;DHT22;36446;47.642;-3.018;2022-07-29T02:18:33;18.80;99.90
50512;DHT22;36446;47.642;-3.018;2022-07-29T02:21:01;18.90;99.90
50512;DHT22;36446;47.642;-3.018;2022-07-29T02:23:31;18.90;99.90
50512;DHT22;36446;47.642;-3.018;2022-07-29T02:25:58;19.00;99.70
50512;DHT22;36446;47.642;-3.018;2022-07-29T02:28:28;19.00;99.60
50512;DHT22;36446;47.642;-3.018;2022-07-29T02:30:59;18.90;99.80
50512;DHT22;36446;47.642;-3.018;2022-07-29T02:33:26;18.70;99.90
50512;DHT22;36446;47.642;-3.018;2022-07-29T02:35:53;18.60;99.90
50512;DHT22;36446;47.642;-3.018;2022-07-29T02:38:22;18.60;99.90
50512;DHT22;36446;47.642;-3.018;2022-07-29T02:41:13;18.50;99.90
50512;DHT22;36446;47.642;-3.018;2022-07-29T02:43:41;18.60;99.90
50512;DHT22;36446;47.642;-3.018;2022-07-29T02:46:13;18.70;99.90
50512;DHT22;36446;47.642;-3.018;2022-07-29T02:48:46;18.70;99.90
50512;DHT22;36446;47.642;-3.018;2022-07-29T02:51:27;18.70;99.90
50512;DHT22;36446;47.642;-3.018;2022-07-29T02:53:56;18.80;99.90
50512;DHT22;36446;47.642;-3.018;2022-07-29T02:56:28;18.80;99.90
50512;DHT22;36446;47.642;-3.018;2022-07-29T02:59:03;18.70;99.90
50512;DHT22;36446;47.642;-3.018;2022-07-29T03:01:31;18.80;99.80
50512;DHT22;36446;47.642;-3.018;2022-07-29T03:04:01;18.80;99.80
50512;DHT22;36446;47.642;-3.018;2022-07-29T03:06:28;18.90;99.70
50512;DHT22;36446;47.642;-3.018;2022-07-29T03:08:56;18.90;99.60
50512;DHT22;36446;47.642;-3.018;2022-07-29T03:11:23;19.00;99.30
50512;DHT22;36446;47.642;-3.018;2022-07-29T03:13:50;19.10;99.60
50512;DHT22;36446;47.642;-3.018;2022-07-29T03:16:16;19.00;99.70
50512;DHT22;36446;47.642;-3.018;2022-07-29T03:18:43;19.00;99.90
50512;DHT22;36446;47.642;-3.018;2022-07-29T03:21:09;19.00;99.90
50512;DHT22;36446;47.642;-3.018;2022-07-29T03:23:35;19.00;99.90
50512;DHT22;36446;47.642;-3.018;2022-07-29T03:26:00;19.10;99.90
50512;DHT22;36446;47.642;-3.018;2022-07-29T03:28:26;19.10;99.80
50512;DHT22;36446;47.642;-3.018;2022-07-29T03:30:53;19.00;99.90
50512;DHT22;36446;47.642;-3.018;2022-07-29T03:33:18;19.00;99.90
50512;DHT22;36446;47.642;-3.018;2022-07-29T03:35:44;19.10;99.80
50512;DHT22;36446;47.642;-3.018;2022-07-29T03:38:10;19.10;99.70
50512;DHT22;36446;47.642;-3.018;2022-07-29T03:40:42;19.10;99.90
50512;DHT22;36446;47.642;-3.018;2022-07-29T03:43:11;19.10;99.90
50512;DHT22;36446;47.642;-3.018;2022-07-29T03:45:38;19.10;99.70
50512;DHT22;36446;47.642;-3.018;2022-07-29T03:48:08;19.10;99.80
50512;DHT22;36446;47.642;-3.018;2022-07-29T03:50:35;19.10;99.90
50512;DHT22;36446;47.642;-3.018;2022-07-29T03:53:02;19.10;99.80
50512;DHT22;36446;47.642;-3.018;2022-07-29T03:55:29;19.00;99.90
50512;DHT22;36446;47.642;-3.018;2022-07-29T03:57:58;19.00;99.90
50512;DHT22;36446;47.642;-3.018;2022-07-29T04:00:25;19.00;99.90
50512;DHT22;36446;47.642;-3.018;2022-07-29T04:02:52;19.10;99.90
50512;DHT22;36446;47.642;-3.018;2022-07-29T04:05:17;19.10;99.90
50512;DHT22;36446;47.642;-3.018;2022-07-29T04:07:45;19.00;99.90
50512;DHT22;36446;47.642;-3.018;2022-07-29T04:10:11;18.80;99.90
50512;DHT22;36446;47.642;-3.018;2022-07-29T04:12:37;18.90;99.90
50512;DHT22;36446;47.642;-3.018;2022-07-29T04:15:04;18.90;99.90
50512;DHT22;36446;47.642;-3.018;2022-07-29T04:17:29;19.00;99.90
50512;DHT22;36446;47.642;-3.018;2022-07-29T04:19:55;19.00;99.90
50512;DHT22;36446;47.642;-3.018;2022-07-29T04:22:21;19.10;99.90
50512;DHT22;36446;47.642;-3.018;2022-07-29T04:24:46;19.20;99.90
50512;DHT22;36446;47.642;-3.018;2022-07-29T04:27:12;19.20;99.90
50512;DHT22;36446;47.642;-3.018;2022-07-29T04:29:37;19.10;99.90
50512;DHT22;36446;47.642;-3.018;2022-07-29T04:32:03;19.10;99.90
50512;DHT22;36446;47.642;-3.018;2022-07-29T04:34:29;19.10;99.90
50512;DHT22;36446;47.642;-3.018;2022-07-29T04:36:55;19.10;99.90
50512;DHT22;36446;47.642;-3.018;2022-07-29T04:39:21;19.10;99.90
50512;DHT22;36446;47.642;-3.018;2022-07-29T04:41:46;19.10;99.80
50512;DHT22;36446;47.642;-3.018;2022-07-29T04:44:12;19.00;99.90
50512;DHT22;36446;47.642;-3.018;2022-07-29T04:46:38;18.80;99.90
50512;DHT22;36446;47.642;-3.018;2022-07-29T04:49:04;18.60;99.90
50512;DHT22;36446;47.642;-3.018;2022-07-29T04:51:30;18.60;99.90
50512;DHT22;36446;47.642;-3.018;2022-07-29T04:53:56;18.60;99.90
50512;DHT22;36446;47.642;-3.018;2022-07-29T04:56:21;18.60;99.90
50512;DHT22;36446;47.642;-3.018;2022-07-29T04:58:47;18.60;99.90
50512;DHT22;36446;47.642;-3.018;2022-07-29T05:01:13;18.70;99.90
50512;DHT22;36446;47.642;-3.018;2022-07-29T05:03:40;18.60;99.90
50512;DHT22;36446;47.642;-3.018;2022-07-29T05:06:05;18.60;99.90
50512;DHT22;36446;47.642;-3.018;2022-07-29T05:08:31;18.60;99.90
50512;DHT22;36446;47.642;-3.018;2022-07-29T05:10:56;18.70;99.90
50512;DHT22;36446;47.642;-3.018;2022-07-29T05:13:22;18.60;99.90
50512;DHT22;36446;47.642;-3.018;2022-07-29T05:15:48;18.60;99.90
50512;DHT22;36446;47.642;-3.018;2022-07-29T05:18:13;18.70;99.90
50512;DHT22;36446;47.642;-3.018;2022-07-29T05:20:39;18.80;99.90
50512;DHT22;36446;47.642;-3.018;2022-07-29T05:23:05;18.80;99.90
50512;DHT22;36446;47.642;-3.018;2022-07-29T05:25:30;18.60;99.90
50512;DHT22;36446;47.642;-3.018;2022-07-29T05:27:56;18.60;99.90
50512;DHT22;36446;47.642;-3.018;2022-07-29T05:30:22;18.50;99.90
50512;DHT22;36446;47.642;-3.018;2022-07-29T05:32:48;18.60;99.90
50512;DHT22;36446;47.642;-3.018;2022-07-29T05:35:14;18.60;99.90
50512;DHT22;36446;47.642;-3.018;2022-07-29T05:37:40;18.50;99.90
50512;DHT22;36446;47.642;-3.018;2022-07-29T05:40:06;18.60;99.90
50512;DHT22;36446;47.642;-3.018;2022-07-29T05:42:32;18.60;99.90
50512;DHT22;36446;47.642;-3.018;2022-07-29T05:44:59;18.70;99.90
50512;DHT22;36446;47.642;-3.018;2022-07-29T05:47:25;18.80;99.90
50512;DHT22;36446;47.642;-3.018;2022-07-29T05:49:50;18.80;99.90
50512;DHT22;36446;47.642;-3.018;2022-07-29T05:52:16;18.90;99.90
50512;DHT22;36446;47.642;-3.018;2022-07-29T05:54:42;18.90;99.90
50512;DHT22;36446;47.642;-3.018;2022-07-29T05:57:08;18.80;99.90
50512;DHT22;36446;47.642;-3.018;2022-07-29T05:59:40;18.80;99.90
50512;DHT22;36446;47.642;-3.018;2022-07-29T06:02:05;18.90;99.90
50512;DHT22;36446;47.642;-3.018;2022-07-29T06:04:32;18.90;99.90
50512;DHT22;36446;47.642;-3.018;2022-07-29T06:06:57;19.00;99.90
50512;DHT22;36446;47.642;-3.018;2022-07-29T06:09:23;19.10;99.90
50512;DHT22;36446;47.642;-3.018;2022-07-29T06:11:49;19.10;99.90
50512;DHT22;36446;47.642;-3.018;2022-07-29T06:14:14;19.20;99.90
50512;DHT22;36446;47.642;-3.018;2022-07-29T06:16:41;19.20;99.90
50512;DHT22;36446;47.642;-3.018;2022-07-29T06:19:06;19.30;99.90
50512;DHT22;36446;47.642;-3.018;2022-07-29T06:21:32;19.40;99.90
50512;DHT22;36446;47.642;-3.018;2022-07-29T06:23:59;19.40;99.90
50512;DHT22;36446;47.642;-3.018;2022-07-29T06:26:24;19.40;99.90
50512;DHT22;36446;47.642;-3.018;2022-07-29T06:28:50;19.30;99.90
50512;DHT22;36446;47.642;-3.018;2022-07-29T06:31:15;19.30;99.90
50512;DHT22;36446;47.642;-3.018;2022-07-29T06:33:41;19.40;99.90
50512;DHT22;36446;47.642;-3.018;2022-07-29T06:36:07;19.50;99.90
50512;DHT22;36446;47.642;-3.018;2022-07-29T06:38:33;19.70;99.90
50512;DHT22;36446;47.642;-3.018;2022-07-29T06:40:59;19.70;99.90
50512;DHT22;36446;47.642;-3.018;2022-07-29T06:43:26;19.80;99.90
50512;DHT22;36446;47.642;-3.018;2022-07-29T06:45:52;19.90;99.90
50512;DHT22;36446;47.642;-3.018;2022-07-29T06:48:18;19.90;99.90
50512;DHT22;36446;47.642;-3.018;2022-07-29T06:50:43;20.00;99.90
50512;DHT22;36446;47.642;-3.018;2022-07-29T06:53:09;20.10;99.90
50512;DHT22;36446;47.642;-3.018;2022-07-29T06:55:35;20.20;99.90
50512;DHT22;36446;47.642;-3.018;2022-07-29T06:58:02;20.20;99.90
50512;DHT22;36446;47.642;-3.018;2022-07-29T07:00:28;20.30;99.90
50512;DHT22;36446;47.642;-3.018;2022-07-29T07:02:53;20.40;99.90
50512;DHT22;36446;47.642;-3.018;2022-07-29T07:05:19;20.50;99.90
50512;DHT22;36446;47.642;-3.018;2022-07-29T07:07:45;20.60;99.40
50512;DHT22;36446;47.642;-3.018;2022-07-29T07:10:10;20.70;99.50
50512;DHT22;36446;47.642;-3.018;2022-07-29T07:12:36;20.80;99.50
50512;DHT22;36446;47.642;-3.018;2022-07-29T07:15:02;20.90;99.30
50512;DHT22;36446;47.642;-3.018;2022-07-29T07:17:28;21.00;99.50
50512;DHT22;36446;47.642;-3.018;2022-07-29T07:19:54;21.00;99.10
50512;DHT22;36446;47.642;-3.018;2022-07-29T07:22:19;21.10;98.60
50512;DHT22;36446;47.642;-3.018;2022-07-29T07:24:45;21.20;98.90
50512;DHT22;36446;47.642;-3.018;2022-07-29T07:27:11;21.20;98.20
50512;DHT22;36446;47.642;-3.018;2022-07-29T07:29:36;21.20;97.80
50512;DHT22;36446;47.642;-3.018;2022-07-29T07:32:06;21.30;97.90
50512;DHT22;36446;47.642;-3.018;2022-07-29T07:34:32;21.40;97.40
50512;DHT22;36446;47.642;-3.018;2022-07-29T07:36:58;21.30;97.40
50512;DHT22;36446;47.642;-3.018;2022-07-29T07:39:23;21.30;97.20
50512;DHT22;36446;47.642;-3.018;2022-07-29T07:41:49;21.40;97.40
50512;DHT22;36446;47.642;-3.018;2022-07-29T07:44:15;21.40;97.30
50512;DHT22;36446;47.642;-3.018;2022-07-29T07:46:40;21.40;97.10
50512;DHT22;36446;47.642;-3.018;2022-07-29T07:49:06;21.50;97.00
50512;DHT22;36446;47.642;-3.018;2022-07-29T07:51:31;21.50;97.30
50512;DHT22;36446;47.642;-3.018;2022-07-29T07:53:57;21.60;97.20
50512;DHT22;36446;47.642;-3.018;2022-07-29T07:56:23;21.80;97.50
50512;DHT22;36446;47.642;-3.018;2022-07-29T07:58:48;21.80;96.80
50512;DHT22;36446;47.642;-3.018;2022-07-29T08:01:14;21.90;96.60
50512;DHT22;36446;47.642;-3.018;2022-07-29T08:03:43;22.00;96.70
50512;DHT22;36446;47.642;-3.018;2022-07-29T08:06:08;22.10;97.20
50512;DHT22;36446;47.642;-3.018;2022-07-29T08:08:34;22.20;96.80
50512;DHT22;36446;47.642;-3.018;2022-07-29T08:10:59;22.30;96.40
50512;DHT22;36446;47.642;-3.018;2022-07-29T08:13:27;22.30;96.70
50512;DHT22;36446;47.642;-3.018;2022-07-29T08:15:54;22.40;96.40
50512;DHT22;36446;47.642;-3.018;2022-07-29T08:18:24;22.50;95.90
50512;DHT22;36446;47.642;-3.018;2022-07-29T08:20:50;22.60;96.20
50512;DHT22;36446;47.642;-3.018;2022-07-29T08:23:16;22.60;94.80
50512;DHT22;36446;47.642;-3.018;2022-07-29T08:25:41;22.60;94.90
50512;DHT22;36446;47.642;-3.018;2022-07-29T08:28:07;22.60;95.40
50512;DHT22;36446;47.642;-3.018;2022-07-29T08:30:34;22.70;95.20
50512;DHT22;36446;47.642;-3.018;2022-07-29T08:33:00;22.70;94.70
50512;DHT22;36446;47.642;-3.018;2022-07-29T08:35:26;22.70;94.50
50512;DHT22;36446;47.642;-3.018;2022-07-29T08:37:52;22.70;94.70
50512;DHT22;36446;47.642;-3.018;2022-07-29T08:40:19;22.80;94.80
50512;DHT22;36446;47.642;-3.018;2022-07-29T08:42:46;22.90;94.60
50512;DHT22;36446;47.642;-3.018;2022-07-29T08:45:11;22.90;94.30
50512;DHT22;36446;47.642;-3.018;2022-07-29T08:47:39;23.10;94.10
50512;DHT22;36446;47.642;-3.018;2022-07-29T08:50:08;23.10;94.30
50512;DHT22;36446;47.642;-3.018;2022-07-29T08:52:39;23.10;93.40
50512;DHT22;36446;47.642;-3.018;2022-07-29T08:55:07;23.10;93.60
50512;DHT22;36446;47.642;-3.018;2022-07-29T08:57:33;23.10;93.60
50512;DHT22;36446;47.642;-3.018;2022-07-29T09:00:02;23.20;93.80
50512;DHT22;36446;47.642;-3.018;2022-07-29T09:02:40;23.40;93.60
50512;DHT22;36446;47.642;-3.018;2022-07-29T09:05:07;23.50;93.50
50512;DHT22;36446;47.642;-3.018;2022-07-29T09:07:33;23.60;93.10
50512;DHT22;36446;47.642;-3.018;2022-07-29T09:10:00;23.70;93.30
50512;DHT22;36446;47.642;-3.018;2022-07-29T09:12:26;23.70;92.90
50512;DHT22;36446;47.642;-3.018;2022-07-29T09:14:52;23.80;93.10
50512;DHT22;36446;47.642;-3.018;2022-07-29T09:17:17;23.80;92.40
50512;DHT22;36446;47.642;-3.018;2022-07-29T09:19:45;23.90;92.70
50512;DHT22;36446;47.642;-3.018;2022-07-29T09:22:10;24.00;92.80
50512;DHT22;36446;47.642;-3.018;2022-07-29T09:27:08;24.30;91.90
50512;DHT22;36446;47.642;-3.018;2022-07-29T09:29:35;24.30;91.70
50512;DHT22;36446;47.642;-3.018;2022-07-29T09:32:06;24.30;91.50
50512;DHT22;36446;47.642;-3.018;2022-07-29T09:34:33;24.30;91.80
50512;DHT22;36446;47.642;-3.018;2022-07-29T09:36:59;24.40;91.50
50512;DHT22;36446;47.642;-3.018;2022-07-29T09:39:29;24.40;91.40
50512;DHT22;36446;47.642;-3.018;2022-07-29T09:41:58;24.40;91.10
50512;DHT22;36446;47.642;-3.018;2022-07-29T09:44:25;24.50;91.50
50512;DHT22;36446;47.642;-3.018;2022-07-29T09:47:01;24.50;91.10
50512;DHT22;36446;47.642;-3.018;2022-07-29T09:49:35;24.60;90.70
50512;DHT22;36446;47.642;-3.018;2022-07-29T09:52:04;24.70;90.90
50512;DHT22;36446;47.642;-3.018;2022-07-29T09:54:30;24.70;90.70
50512;DHT22;36446;47.642;-3.018;2022-07-29T09:57:03;24.80;90.50
50512;DHT22;36446;47.642;-3.018;2022-07-29T09:59:30;24.90;90.30
50512;DHT22;36446;47.642;-3.018;2022-07-29T10:01:56;24.90;89.70
50512;DHT22;36446;47.642;-3.018;2022-07-29T10:04:22;24.90;90.10
50512;DHT22;36446;47.642;-3.018;2022-07-29T10:07:02;24.90;90.30
50512;DHT22;36446;47.642;-3.018;2022-07-29T10:09:28;24.90;90.70
50512;DHT22;36446;47.642;-3.018;2022-07-29T10:12:14;24.90;90.70
50512;DHT22;36446;47.642;-3.018;2022-07-29T10:14:41;24.90;89.50
50512;DHT22;36446;47.642;-3.018;2022-07-29T10:17:09;25.00;89.80
50512;DHT22;36446;47.642;-3.018;2022-07-29T10:19:37;25.20;89.20
50512;DHT22;36446;47.642;-3.018;2022-07-29T10:22:06;25.20;88.60
50512;DHT22;36446;47.642;-3.018;2022-07-29T10:24:35;25.20;87.40
50512;DHT22;36446;47.642;-3.018;2022-07-29T10:27:02;25.20;88.30
50512;DHT22;36446;47.642;-3.018;2022-07-29T10:29:29;25.20;87.80
50512;DHT22;36446;47.642;-3.018;2022-07-29T10:40:22;25.40;89.00
50512;DHT22;36446;47.642;-3.018;2022-07-29T10:43:22;25.40;89.40
50512;DHT22;36446;47.642;-3.018;2022-07-29T10:45:49;25.40;89.30
50512;DHT22;36446;47.642;-3.018;2022-07-29T10:48:21;25.30;89.40
50512;DHT22;36446;47.642;-3.018;2022-07-29T10:51:13;25.30;89.30
50512;DHT22;36446;47.642;-3.018;2022-07-29T10:53:49;25.50;87.80
50512;DHT22;36446;47.642;-3.018;2022-07-29T10:56:31;25.80;88.40
50512;DHT22;36446;47.642;-3.018;2022-07-29T11:01:50;25.80;87.10
50512;DHT22;36446;47.642;-3.018;2022-07-29T11:04:40;25.80;88.70
50512;DHT22;36446;47.642;-3.018;2022-07-29T11:09:30;26.00;86.50
50512;DHT22;36446;47.642;-3.018;2022-07-29T11:11:59;26.20;84.70
50512;DHT22;36446;47.642;-3.018;2022-07-29T11:14:56;26.20;85.80
50512;DHT22;36446;47.642;-3.018;2022-07-29T11:17:23;26.40;84.20
50512;DHT22;36446;47.642;-3.018;2022-07-29T11:19:48;26.50;83.90
50512;DHT22;36446;47.642;-3.018;2022-07-29T11:22:33;26.60;85.60
50512;DHT22;36446;47.642;-3.018;2022-07-29T11:25:16;26.60;83.30
50512;DHT22;36446;47.642;-3.018;2022-07-29T11:27:42;26.60;83.50
50512;DHT22;36446;47.642;-3.018;2022-07-29T11:30:08;26.70;82.80
50512;DHT22;36446;47.642;-3.018;2022-07-29T11:32:40;26.70;85.50
50512;DHT22;36446;47.642;-3.018;2022-07-29T11:35:23;26.60;83.40
50512;DHT22;36446;47.642;-3.018;2022-07-29T11:38:23;26.60;84.10
50512;DHT22;36446;47.642;-3.018;2022-07-29T11:41:24;26.70;85.00
50512;DHT22;36446;47.642;-3.018;2022-07-29T11:43:58;26.70;86.10
50512;DHT22;36446;47.642;-3.018;2022-07-29T11:46:50;26.70;83.70
50512;DHT22;36446;47.642;-3.018;2022-07-29T11:49:24;26.80;84.30
50512;DHT22;36446;47.642;-3.018;2022-07-29T11:51:57;26.70;84.70
50512;DHT22;36446;47.642;-3.018;2022-07-29T11:54:42;26.70;84.00
50512;DHT22;36446;47.642;-3.018;2022-07-29T11:57:09;26.70;83.90
50512;DHT22;36446;47.642;-3.018;2022-07-29T11:59:42;26.80;83.60
50512;DHT22;36446;47.642;-3.018;2022-07-29T12:02:08;26.80;84.80
50512;DHT22;36446;47.642;-3.018;2022-07-29T12:04:51;26.80;85.50
50512;DHT22;36446;47.642;-3.018;2022-07-29T12:07:17;26.70;86.50
50512;DHT22;36446;47.642;-3.018;2022-07-29T12:09:52;26.70;86.90
50512;DHT22;36446;47.642;-3.018;2022-07-29T12:12:20;26.70;87.60
50512;DHT22;36446;47.642;-3.018;2022-07-29T12:14:47;26.90;87.50
50512;DHT22;36446;47.642;-3.018;2022-07-29T12:17:26;27.00;87.40
50512;DHT22;36446;47.642;-3.018;2022-07-29T12:19:53;27.10;88.20
50512;DHT22;36446;47.642;-3.018;2022-07-29T12:22:30;27.20;86.10
50512;DHT22;36446;47.642;-3.018;2022-07-29T12:25:01;27.30;86.50
50512;DHT22;36446;47.642;-3.018;2022-07-29T12:27:28;27.30;86.80
50512;DHT22;36446;47.642;-3.018;2022-07-29T12:30:03;27.30;86.50
50512;DHT22;36446;47.642;-3.018;2022-07-29T12:32:40;27.40;85.50
50512;DHT22;36446;47.642;-3.018;2022-07-29T12:35:09;27.50;86.40
50512;DHT22;36446;47.642;-3.018;2022-07-29T12:37:37;27.60;85.00
50512;DHT22;36446;47.642;-3.018;2022-07-29T12:40:05;27.50;85.50
50512;DHT22;36446;47.642;-3.018;2022-07-29T12:42:31;27.50;85.10
50512;DHT22;36446;47.642;-3.018;2022-07-29T12:44:57;27.60;85.40
50512;DHT22;36446;47.642;-3.018;2022-07-29T12:47:23;27.60;85.40
50512;DHT22;36446;47.642;-3.018;2022-07-29T12:50:07;27.50;85.00
50512;DHT22;36446;47.642;-3.018;2022-07-29T12:52:34;27.50;85.70
50512;DHT22;36446;47.642;-3.018;2022-07-29T12:55:01;27.50;86.70
50512;DHT22;36446;47.642;-3.018;2022-07-29T12:57:27;27.50;86.30
50512;DHT22;36446;47.642;-3.018;2022-07-29T13:02:36;27.40;86.60
50512;DHT22;36446;47.642;-3.018;2022-07-29T13:05:03;27.40;86.30
50512;DHT22;36446;47.642;-3.018;2022-07-29T13:07:31;27.40;85.60
50512;DHT22;36446;47.642;-3.018;2022-07-29T13:10:19;27.40;85.70
50512;DHT22;36446;47.642;-3.018;2022-07-29T13:13:11;27.40;85.30
50512;DHT22;36446;47.642;-3.018;2022-07-29T13:15:46;27.40;85.10
50512;DHT22;36446;47.642;-3.018;2022-07-29T13:20:53;27.60;85.10
50512;DHT22;36446;47.642;-3.018;2022-07-29T13:23:19;27.60;83.90
50512;DHT22;36446;47.642;-3.018;2022-07-29T13:25:45;27.60;83.70
50512;DHT22;36446;47.642;-3.018;2022-07-29T13:28:11;27.70;83.40
50512;DHT22;36446;47.642;-3.018;2022-07-29T13:30:37;27.80;82.40
50512;DHT22;36446;47.642;-3.018;2022-07-29T13:33:04;27.80;83.40
50512;DHT22;36446;47.642;-3.018;2022-07-29T13:35:30;27.80;82.80
50512;DHT22;36446;47.642;-3.018;2022-07-29T13:37:56;27.90;82.20
50512;DHT22;36446;47.642;-3.018;2022-07-29T13:40:21;27.90;82.00
50512;DHT22;36446;47.642;-3.018;2022-07-29T13:42:47;27.90;81.90
50512;DHT22;36446;47.642;-3.018;2022-07-29T13:45:13;27.90;82.30
50512;DHT22;36446;47.642;-3.018;2022-07-29T13:47:39;28.00;82.10
50512;DHT22;36446;47.642;-3.018;2022-07-29T13:50:07;28.00;81.80
50512;DHT22;36446;47.642;-3.018;2022-07-29T13:52:33;28.00;81.20
50512;DHT22;36446;47.642;-3.018;2022-07-29T13:55:00;28.20;80.50
50512;DHT22;36446;47.642;-3.018;2022-07-29T13:57:25;28.20;81.20
50512;DHT22;36446;47.642;-3.018;2022-07-29T13:59:51;28.20;80.90
50512;DHT22;36446;47.642;-3.018;2022-07-29T14:02:17;28.10;81.20
50512;DHT22;36446;47.642;-3.018;2022-07-29T14:04:43;27.90;79.30
50512;DHT22;36446;47.642;-3.018;2022-07-29T14:07:08;27.80;78.90
50512;DHT22;36446;47.642;-3.018;2022-07-29T14:09:35;27.80;79.10
50512;DHT22;36446;47.642;-3.018;2022-07-29T14:12:01;27.80;80.00
50512;DHT22;36446;47.642;-3.018;2022-07-29T14:14:28;27.70;79.20
50512;DHT22;36446;47.642;-3.018;2022-07-29T14:16:54;27.60;79.30
50512;DHT22;36446;47.642;-3.018;2022-07-29T14:19:20;27.50;79.60
50512;DHT22;36446;47.642;-3.018;2022-07-29T14:21:46;27.50;79.10
50512;DHT22;36446;47.642;-3.018;2022-07-29T14:24:11;27.50;79.30
50512;DHT22;36446;47.642;-3.018;2022-07-29T14:26:37;27.40;79.50
50512;DHT22;36446;47.642;-3.018;2022-07-29T14:29:02;27.30;79.90
50512;DHT22;36446;47.642;-3.018;2022-07-29T14:31:28;27.40;80.20
50512;DHT22;36446;47.642;-3.018;2022-07-29T14:33:54;27.50;81.00
50512;DHT22;36446;47.642;-3.018;2022-07-29T14:36:19;27.60;81.10
50512;DHT22;36446;47.642;-3.018;2022-07-29T14:38:45;27.70;81.60
50512;DHT22;36446;47.642;-3.018;2022-07-29T14:41:11;27.70;81.20
50512;DHT22;36446;47.642;-3.018;2022-07-29T14:43:36;27.80;80.90
50512;DHT22;36446;47.642;-3.018;2022-07-29T14:46:02;27.70;80.40
50512;DHT22;36446;47.642;-3.018;2022-07-29T14:48:28;27.70;80.40
50512;DHT22;36446;47.642;-3.018;2022-07-29T14:50:53;27.80;80.50
50512;DHT22;36446;47.642;-3.018;2022-07-29T14:53:21;27.90;80.40
50512;DHT22;36446;47.642;-3.018;2022-07-29T14:55:47;27.90;81.00
50512;DHT22;36446;47.642;-3.018;2022-07-29T14:58:13;27.90;79.90
50512;DHT22;36446;47.642;-3.018;2022-07-29T15:00:39;28.10;79.50
50512;DHT22;36446;47.642;-3.018;2022-07-29T15:03:05;28.10;79.90
50512;DHT22;36446;47.642;-3.018;2022-07-29T15:05:31;28.10;79.90
50512;DHT22;36446;47.642;-3.018;2022-07-29T15:07:57;28.10;80.60
50512;DHT22;36446;47.642;-3.018;2022-07-29T15:10:24;28.30;79.60
50512;DHT22;36446;47.642;-3.018;2022-07-29T15:12:52;28.20;79.10
50512;DHT22;36446;47.642;-3.018;2022-07-29T15:15:18;28.10;78.80
50512;DHT22;36446;47.642;-3.018;2022-07-29T15:17:43;28.10;78.20
50512;DHT22;36446;47.642;-3.018;2022-07-29T15:20:09;28.10;79.10
50512;DHT22;36446;47.642;-3.018;2022-07-29T15:22:37;28.20;78.20
50512;DHT22;36446;47.642;-3.018;2022-07-29T15:25:04;28.20;77.60
50512;DHT22;36446;47.642;-3.018;2022-07-29T15:27:30;28.10;78.20
50512;DHT22;36446;47.642;-3.018;2022-07-29T15:29:56;28.10;77.30
50512;DHT22;36446;47.642;-3.018;2022-07-29T15:32:22;28.10;78.30
50512;DHT22;36446;47.642;-3.018;2022-07-29T15:34:48;28.00;77.20
50512;DHT22;36446;47.642;-3.018;2022-07-29T15:37:13;27.80;77.30
50512;DHT22;36446;47.642;-3.018;2022-07-29T15:39:39;27.80;77.30
50512;DHT22;36446;47.642;-3.018;2022-07-29T15:42:05;27.70;77.70
50512;DHT22;36446;47.642;-3.018;2022-07-29T15:44:31;27.80;77.40
50512;DHT22;36446;47.642;-3.018;2022-07-29T15:46:57;27.90;77.50
50512;DHT22;36446;47.642;-3.018;2022-07-29T15:49:35;28.00;77.50
50512;DHT22;36446;47.642;-3.018;2022-07-29T15:52:06;28.00;77.60
50512;DHT22;36446;47.642;-3.018;2022-07-29T15:54:32;28.00;77.80
50512;DHT22;36446;47.642;-3.018;2022-07-29T15:56:59;28.10;77.60
50512;DHT22;36446;47.642;-3.018;2022-07-29T15:59:25;28.10;77.70
50512;DHT22;36446;47.642;-3.018;2022-07-29T16:01:51;28.10;77.10
50512;DHT22;36446;47.642;-3.018;2022-07-29T16:04:17;28.10;76.80